sensor_id;sensor_type;location;lat;lon;timestamp;P1;durP1;ratioP1;P2;durP2;ratioP2
23270;SDS011;11804;51.118;17.058;2023-03-01T00:00:07;86.93;;;43.07;;
23270;SDS011;11804;51.118;17.058;2023-03-01T00:02:35;81.83;;;41.90;;
23270;SDS011;11804;51.118;17.058;2023-03-01T00:05:03;89.93;;;42.40;;
23270;SDS011;11804;51.118;17.058;2023-03-01T00:07:33;92.03;;;42.33;;
23270;SDS011;11804;51.118;17.058;2023-03-01T00:10:00;80.37;;;40.90;;
23270;SDS011;11804;51.118;17.058;2023-03-01T00:12:28;89.27;;;41.80;;
23270;SDS011;11804;51.118;17.058;2023-03-01T00:14:58;91.57;;;41.53;;
23270;SDS011;11804;51.118;17.058;2023-03-01T00:17:26;92.10;;;43.57;;
23270;SDS011;11804;51.118;17.058;2023-03-01T00:19:54;86.77;;;42.43;;
23270;SDS011;11804;51.118;17.058;2023-03-01T00:22:22;87.43;;;42.80;;
23270;SDS011;11804;51.118;17.058;2023-03-01T00:24:50;83.33;;;41.73;;
23270;SDS011;11804;51.118;17.058;2023-03-01T00:27:17;88.73;;;42.13;;
23270;SDS011;11804;51.118;17.058;2023-03-01T00:29:45;81.83;;;41.47;;
23270;SDS011;11804;51.118;17.058;2023-03-01T00:32:14;81.23;;;40.67;;
23270;SDS011;11804;51.118;17.058;2023-03-01T00:34:42;79.77;;;41.03;;
23270;SDS011;11804;51.118;17.058;2023-03-01T00:37:11;83.10;;;41.37;;
23270;SDS011;11804;51.118;17.058;2023-03-01T00:39:38;82.67;;;40.40;;
23270;SDS011;11804;51.118;17.058;2023-03-01T00:42:06;82.87;;;40.37;;
23270;SDS011;11804;51.118;17.058;2023-03-01T00:44:34;81.90;;;40.77;;
23270;SDS011;11804;51.118;17.058;2023-03-01T00:47:01;86.43;;;41.20;;
23270;SDS011;11804;51.118;17.058;2023-03-01T00:49:29;78.97;;;40.50;;
23270;SDS011;11804;51.118;17.058;2023-03-01T00:51:57;79.93;;;40.53;;
23270;SDS011;11804;51.118;17.058;2023-03-01T00:54:27;86.57;;;41.50;;
23270;SDS011;11804;51.118;17.058;2023-03-01T00:56:55;86.10;;;41.77;;
23270;SDS011;11804;51.118;17.058;2023-03-01T00:59:22;87.30;;;42.63;;
23270;SDS011;11804;51.118;17.058;2023-03-01T01:01:50;85.53;;;41.47;;
23270;SDS011;11804;51.118;17.058;2023-03-01T01:04:18;78.87;;;41.27;;
23270;SDS011;11804;51.118;17.058;2023-03-01T01:06:45;90.83;;;41.80;;
23270;SDS011;11804;51.118;17.058;2023-03-01T01:09:14;78.07;;;41.37;;
23270;SDS011;11804;51.118;17.058;2023-03-01T01:11:50;86.10;;;42.23;;
23270;SDS011;11804;51.118;17.058;2023-03-01T01:14:16;85.87;;;41.57;;
23270;SDS011;11804;51.118;17.058;2023-03-01T01:16:45;82.43;;;42.00;;
23270;SDS011;11804;51.118;17.058;2023-03-01T01:19:13;86.40;;;41.57;;
23270;SDS011;11804;51.118;17.058;2023-03-01T01:21:42;80.57;;;39.87;;
23270;SDS011;11804;51.118;17.058;2023-03-01T01:24:10;81.90;;;40.80;;
23270;SDS011;11804;51.118;17.058;2023-03-01T01:26:38;80.13;;;41.53;;
23270;SDS011;11804;51.118;17.058;2023-03-01T01:29:06;82.13;;;41.50;;
23270;SDS011;11804;51.118;17.058;2023-03-01T01:31:35;85.10;;;40.37;;
23270;SDS011;11804;51.118;17.058;2023-03-01T01:34:05;85.83;;;42.77;;
23270;SDS011;11804;51.118;17.058;2023-03-01T01:36:34;83.47;;;39.70;;
23270;SDS011;11804;51.118;17.058;2023-03-01T01:39:02;84.73;;;41.37;;
23270;SDS011;11804;51.118;17.058;2023-03-01T01:41:30;77.40;;;39.90;;
23270;SDS011;11804;51.118;17.058;2023-03-01T01:54:39;81.53;;;40.10;;
23270;SDS011;11804;51.118;17.058;2023-03-01T01:57:11;82.83;;;41.07;;
23270;SDS011;11804;51.118;17.058;2023-03-01T01:59:39;80.77;;;39.57;;
23270;SDS011;11804;51.118;17.058;2023-03-01T02:02:10;79.73;;;40.03;;
23270;SDS011;11804;51.118;17.058;2023-03-01T02:04:39;79.07;;;39.60;;
23270;SDS011;11804;51.118;17.058;2023-03-01T02:07:20;79.43;;;39.30;;
23270;SDS011;11804;51.118;17.058;2023-03-01T02:09:50;85.90;;;40.23;;
23270;SDS011;11804;51.118;17.058;2023-03-01T02:12:20;78.83;;;39.77;;
23270;SDS011;11804;51.118;17.058;2023-03-01T02:14:49;85.47;;;40.17;;
23270;SDS011;11804;51.118;17.058;2023-03-01T02:17:17;82.37;;;41.67;;
23270;SDS011;11804;51.118;17.058;2023-03-01T02:22:23;88.73;;;42.97;;
23270;SDS011;11804;51.118;17.058;2023-03-01T02:24:59;85.90;;;43.63;;
23270;SDS011;11804;51.118;17.058;2023-03-01T02:28:00;94.03;;;44.93;;
23270;SDS011;11804;51.118;17.058;2023-03-01T02:30:24;92.87;;;45.43;;
23270;SDS011;11804;51.118;17.058;2023-03-01T02:32:53;100.03;;;47.63;;
23270;SDS011;11804;51.118;17.058;2023-03-01T02:35:29;87.20;;;44.17;;
23270;SDS011;11804;51.118;17.058;2023-03-01T02:37:58;95.53;;;46.10;;
23270;SDS011;11804;51.118;17.058;2023-03-01T02:40:30;92.03;;;45.63;;
23270;SDS011;11804;51.118;17.058;2023-03-01T02:43:00;100.83;;;46.43;;
23270;SDS011;11804;51.118;17.058;2023-03-01T02:45:31;101.73;;;47.43;;
23270;SDS011;11804;51.118;17.058;2023-03-01T02:47:58;102.17;;;48.67;;
23270;SDS011;11804;51.118;17.058;2023-03-01T02:55:49;103.03;;;50.20;;
23270;SDS011;11804;51.118;17.058;2023-03-01T02:58:17;104.17;;;50.00;;
23270;SDS011;11804;51.118;17.058;2023-03-01T03:00:45;109.80;;;50.20;;
23270;SDS011;11804;51.118;17.058;2023-03-01T03:03:15;106.53;;;50.53;;
23270;SDS011;11804;51.118;17.058;2023-03-01T03:05:45;109.17;;;50.80;;
23270;SDS011;11804;51.118;17.058;2023-03-01T03:08:14;106.80;;;51.07;;
23270;SDS011;11804;51.118;17.058;2023-03-01T03:10:43;106.80;;;52.70;;
23270;SDS011;11804;51.118;17.058;2023-03-01T03:13:12;114.13;;;51.87;;
23270;SDS011;11804;51.118;17.058;2023-03-01T03:15:41;117.53;;;53.00;;
23270;SDS011;11804;51.118;17.058;2023-03-01T03:18:10;113.80;;;52.60;;
23270;SDS011;11804;51.118;17.058;2023-03-01T03:20:40;107.93;;;50.87;;
23270;SDS011;11804;51.118;17.058;2023-03-01T03:23:09;104.43;;;51.33;;
23270;SDS011;11804;51.118;17.058;2023-03-01T03:25:37;110.93;;;51.70;;
23270;SDS011;11804;51.118;17.058;2023-03-01T03:28:06;109.93;;;49.67;;
23270;SDS011;11804;51.118;17.058;2023-03-01T03:30:37;107.20;;;50.30;;
23270;SDS011;11804;51.118;17.058;2023-03-01T03:33:06;109.57;;;50.23;;
23270;SDS011;11804;51.118;17.058;2023-03-01T03:35:39;100.17;;;47.97;;
23270;SDS011;11804;51.118;17.058;2023-03-01T03:38:10;104.53;;;48.80;;
23270;SDS011;11804;51.118;17.058;2023-03-01T03:40:43;104.33;;;48.83;;
23270;SDS011;11804;51.118;17.058;2023-03-01T03:43:14;100.27;;;46.97;;
23270;SDS011;11804;51.118;17.058;2023-03-01T03:45:44;99.00;;;48.87;;
23270;SDS011;11804;51.118;17.058;2023-03-01T03:48:13;103.40;;;49.10;;
23270;SDS011;11804;51.118;17.058;2023-03-01T03:50:41;100.43;;;47.27;;
23270;SDS011;11804;51.118;17.058;2023-03-01T03:53:11;103.43;;;49.67;;
23270;SDS011;11804;51.118;17.058;2023-03-01T03:55:39;97.57;;;48.40;;
23270;SDS011;11804;51.118;17.058;2023-03-01T03:58:07;103.47;;;47.43;;
23270;SDS011;11804;51.118;17.058;2023-03-01T04:03:07;101.63;;;49.00;;
23270;SDS011;11804;51.118;17.058;2023-03-01T04:05:36;111.07;;;50.97;;
23270;SDS011;11804;51.118;17.058;2023-03-01T04:08:05;106.13;;;50.93;;
23270;SDS011;11804;51.118;17.058;2023-03-01T04:10:39;108.97;;;49.57;;
23270;SDS011;11804;51.118;17.058;2023-03-01T04:13:04;115.50;;;50.80;;
23270;SDS011;11804;51.118;17.058;2023-03-01T04:15:33;104.93;;;49.40;;
23270;SDS011;11804;51.118;17.058;2023-03-01T04:18:01;109.20;;;52.33;;
23270;SDS011;11804;51.118;17.058;2023-03-01T04:20:32;109.93;;;50.17;;
23270;SDS011;11804;51.118;17.058;2023-03-01T04:23:03;110.77;;;52.13;;
23270;SDS011;11804;51.118;17.058;2023-03-01T04:25:39;112.87;;;52.67;;
23270;SDS011;11804;51.118;17.058;2023-03-01T04:28:07;119.80;;;53.10;;
23270;SDS011;11804;51.118;17.058;2023-03-01T04:30:36;115.63;;;52.83;;
23270;SDS011;11804;51.118;17.058;2023-03-01T04:33:05;114.27;;;52.33;;
23270;SDS011;11804;51.118;17.058;2023-03-01T04:35:35;119.63;;;53.57;;
23270;SDS011;11804;51.118;17.058;2023-03-01T04:38:05;108.93;;;52.77;;
23270;SDS011;11804;51.118;17.058;2023-03-01T04:40:33;116.43;;;54.30;;
23270;SDS011;11804;51.118;17.058;2023-03-01T04:43:01;113.67;;;53.87;;
23270;SDS011;11804;51.118;17.058;2023-03-01T04:45:29;112.97;;;54.13;;
23270;SDS011;11804;51.118;17.058;2023-03-01T04:47:58;108.87;;;52.33;;
23270;SDS011;11804;51.118;17.058;2023-03-01T04:50:25;110.80;;;53.37;;
23270;SDS011;11804;51.118;17.058;2023-03-01T04:52:53;114.50;;;53.83;;
23270;SDS011;11804;51.118;17.058;2023-03-01T04:55:27;107.33;;;51.67;;
23270;SDS011;11804;51.118;17.058;2023-03-01T04:57:55;111.00;;;54.17;;
23270;SDS011;11804;51.118;17.058;2023-03-01T05:00:23;124.77;;;56.60;;
23270;SDS011;11804;51.118;17.058;2023-03-01T05:02:52;117.30;;;54.23;;
23270;SDS011;11804;51.118;17.058;2023-03-01T05:05:29;115.67;;;55.13;;
23270;SDS011;11804;51.118;17.058;2023-03-01T05:07:59;112.47;;;53.47;;
23270;SDS011;11804;51.118;17.058;2023-03-01T05:10:29;114.20;;;54.07;;
23270;SDS011;11804;51.118;17.058;2023-03-01T05:12:58;115.93;;;54.17;;
23270;SDS011;11804;51.118;17.058;2023-03-01T05:15:26;102.37;;;48.03;;
23270;SDS011;11804;51.118;17.058;2023-03-01T05:17:56;103.67;;;51.17;;
23270;SDS011;11804;51.118;17.058;2023-03-01T05:20:26;108.47;;;51.50;;
23270;SDS011;11804;51.118;17.058;2023-03-01T05:22:56;112.63;;;51.47;;
23270;SDS011;11804;51.118;17.058;2023-03-01T05:25:25;102.53;;;47.37;;
23270;SDS011;11804;51.118;17.058;2023-03-01T05:27:55;101.47;;;49.87;;
23270;SDS011;11804;51.118;17.058;2023-03-01T05:30:23;108.73;;;50.10;;
23270;SDS011;11804;51.118;17.058;2023-03-01T05:32:50;113.23;;;52.17;;
23270;SDS011;11804;51.118;17.058;2023-03-01T05:35:19;109.93;;;51.47;;
23270;SDS011;11804;51.118;17.058;2023-03-01T05:37:48;112.27;;;52.60;;
23270;SDS011;11804;51.118;17.058;2023-03-01T05:40:17;113.80;;;53.63;;
23270;SDS011;11804;51.118;17.058;2023-03-01T05:42:47;109.93;;;52.97;;
23270;SDS011;11804;51.118;17.058;2023-03-01T05:45:17;110.33;;;52.33;;
23270;SDS011;11804;51.118;17.058;2023-03-01T05:47:46;106.87;;;51.53;;
23270;SDS011;11804;51.118;17.058;2023-03-01T05:50:26;110.70;;;53.70;;
23270;SDS011;11804;51.118;17.058;2023-03-01T05:52:56;119.10;;;52.57;;
23270;SDS011;11804;51.118;17.058;2023-03-01T05:55:23;106.10;;;52.43;;
23270;SDS011;11804;51.118;17.058;2023-03-01T05:57:51;108.13;;;51.70;;
23270;SDS011;11804;51.118;17.058;2023-03-01T06:00:19;109.40;;;51.97;;
23270;SDS011;11804;51.118;17.058;2023-03-01T06:02:50;104.60;;;50.13;;
23270;SDS011;11804;51.118;17.058;2023-03-01T06:05:19;107.70;;;50.97;;
23270;SDS011;11804;51.118;17.058;2023-03-01T06:07:48;98.43;;;46.13;;
23270;SDS011;11804;51.118;17.058;2023-03-01T06:10:16;88.70;;;43.67;;
23270;SDS011;11804;51.118;17.058;2023-03-01T06:12:46;100.57;;;48.07;;
23270;SDS011;11804;51.118;17.058;2023-03-01T06:15:15;89.30;;;42.93;;
23270;SDS011;11804;51.118;17.058;2023-03-01T06:17:44;86.37;;;43.43;;
23270;SDS011;11804;51.118;17.058;2023-03-01T06:20:15;91.07;;;44.17;;
23270;SDS011;11804;51.118;17.058;2023-03-01T06:22:43;90.83;;;43.87;;
23270;SDS011;11804;51.118;17.058;2023-03-01T06:25:13;94.13;;;45.23;;
23270;SDS011;11804;51.118;17.058;2023-03-01T06:27:43;93.63;;;46.33;;
23270;SDS011;11804;51.118;17.058;2023-03-01T06:30:12;77.47;;;40.10;;
23270;SDS011;11804;51.118;17.058;2023-03-01T06:32:41;81.60;;;41.27;;
23270;SDS011;11804;51.118;17.058;2023-03-01T06:35:09;83.73;;;41.07;;
23270;SDS011;11804;51.118;17.058;2023-03-01T06:37:38;84.70;;;41.60;;
23270;SDS011;11804;51.118;17.058;2023-03-01T06:40:07;84.97;;;42.03;;
23270;SDS011;11804;51.118;17.058;2023-03-01T06:42:38;87.67;;;43.87;;
23270;SDS011;11804;51.118;17.058;2023-03-01T06:45:07;91.87;;;45.03;;
23270;SDS011;11804;51.118;17.058;2023-03-01T06:47:35;92.37;;;44.07;;
23270;SDS011;11804;51.118;17.058;2023-03-01T06:50:04;84.13;;;41.60;;
23270;SDS011;11804;51.118;17.058;2023-03-01T06:52:32;76.80;;;39.30;;
23270;SDS011;11804;51.118;17.058;2023-03-01T06:54:59;71.10;;;37.20;;
23270;SDS011;11804;51.118;17.058;2023-03-01T06:57:29;78.80;;;37.73;;
23270;SDS011;11804;51.118;17.058;2023-03-01T06:59:56;85.80;;;40.77;;
23270;SDS011;11804;51.118;17.058;2023-03-01T07:02:24;87.87;;;45.00;;
23270;SDS011;11804;51.118;17.058;2023-03-01T07:04:52;89.17;;;44.67;;
23270;SDS011;11804;51.118;17.058;2023-03-01T07:07:20;83.60;;;43.83;;
23270;SDS011;11804;51.118;17.058;2023-03-01T07:09:48;86.97;;;45.33;;
23270;SDS011;11804;51.118;17.058;2023-03-01T07:12:16;85.93;;;43.63;;
23270;SDS011;11804;51.118;17.058;2023-03-01T07:14:44;87.50;;;43.57;;
23270;SDS011;11804;51.118;17.058;2023-03-01T07:17:11;84.53;;;44.20;;
23270;SDS011;11804;51.118;17.058;2023-03-01T07:19:39;95.43;;;51.43;;
23270;SDS011;11804;51.118;17.058;2023-03-01T07:22:07;100.40;;;51.30;;
23270;SDS011;11804;51.118;17.058;2023-03-01T07:24:35;93.27;;;49.20;;
23270;SDS011;11804;51.118;17.058;2023-03-01T07:27:03;90.60;;;46.73;;
23270;SDS011;11804;51.118;17.058;2023-03-01T07:29:30;94.57;;;48.57;;
23270;SDS011;11804;51.118;17.058;2023-03-01T07:31:58;86.40;;;45.10;;
23270;SDS011;11804;51.118;17.058;2023-03-01T07:34:26;85.83;;;41.97;;
23270;SDS011;11804;51.118;17.058;2023-03-01T07:36:53;76.93;;;40.80;;
23270;SDS011;11804;51.118;17.058;2023-03-01T07:39:21;77.20;;;39.97;;
23270;SDS011;11804;51.118;17.058;2023-03-01T07:41:52;69.83;;;37.07;;
23270;SDS011;11804;51.118;17.058;2023-03-01T07:44:19;73.60;;;36.93;;
23270;SDS011;11804;51.118;17.058;2023-03-01T07:46:47;70.60;;;35.73;;
23270;SDS011;11804;51.118;17.058;2023-03-01T07:49:15;68.93;;;38.10;;
23270;SDS011;11804;51.118;17.058;2023-03-01T07:51:42;69.80;;;39.40;;
23270;SDS011;11804;51.118;17.058;2023-03-01T07:54:10;78.23;;;39.77;;
23270;SDS011;11804;51.118;17.058;2023-03-01T07:56:38;71.20;;;39.43;;
23270;SDS011;11804;51.118;17.058;2023-03-01T07:59:06;61.10;;;34.20;;
23270;SDS011;11804;51.118;17.058;2023-03-01T08:01:34;58.70;;;32.03;;
23270;SDS011;11804;51.118;17.058;2023-03-01T08:04:01;56.63;;;31.73;;
23270;SDS011;11804;51.118;17.058;2023-03-01T08:06:31;54.80;;;31.40;;
23270;SDS011;11804;51.118;17.058;2023-03-01T08:09:00;54.33;;;30.43;;
23270;SDS011;11804;51.118;17.058;2023-03-01T08:11:29;52.23;;;29.93;;
23270;SDS011;11804;51.118;17.058;2023-03-01T08:13:56;54.60;;;30.90;;
23270;SDS011;11804;51.118;17.058;2023-03-01T08:16:24;50.40;;;28.50;;
23270;SDS011;11804;51.118;17.058;2023-03-01T08:18:51;45.30;;;26.40;;
23270;SDS011;11804;51.118;17.058;2023-03-01T08:21:21;42.40;;;25.07;;
23270;SDS011;11804;51.118;17.058;2023-03-01T08:23:49;42.33;;;24.47;;
23270;SDS011;11804;51.118;17.058;2023-03-01T08:26:17;41.10;;;25.63;;
23270;SDS011;11804;51.118;17.058;2023-03-01T08:28:47;44.33;;;26.67;;
23270;SDS011;11804;51.118;17.058;2023-03-01T08:31:20;42.30;;;26.77;;
23270;SDS011;11804;51.118;17.058;2023-03-01T08:33:50;40.50;;;25.17;;
23270;SDS011;11804;51.118;17.058;2023-03-01T08:36:27;38.00;;;24.67;;
23270;SDS011;11804;51.118;17.058;2023-03-01T08:38:56;33.40;;;23.13;;
23270;SDS011;11804;51.118;17.058;2023-03-01T08:41:29;30.27;;;22.73;;
23270;SDS011;11804;51.118;17.058;2023-03-01T08:43:55;31.07;;;23.20;;
23270;SDS011;11804;51.118;17.058;2023-03-01T08:48:57;39.80;;;24.98;;
23270;SDS011;11804;51.118;17.058;2023-03-01T08:51:25;32.73;;;22.40;;
23270;SDS011;11804;51.118;17.058;2023-03-01T08:53:54;29.97;;;21.73;;
23270;SDS011;11804;51.118;17.058;2023-03-01T08:56:23;32.27;;;22.00;;
23270;SDS011;11804;51.118;17.058;2023-03-01T08:58:50;28.90;;;19.87;;
23270;SDS011;11804;51.118;17.058;2023-03-01T09:01:18;31.60;;;19.83;;
23270;SDS011;11804;51.118;17.058;2023-03-01T09:03:46;30.63;;;21.37;;
23270;SDS011;11804;51.118;17.058;2023-03-01T09:06:14;26.93;;;19.73;;
23270;SDS011;11804;51.118;17.058;2023-03-01T09:08:43;26.27;;;18.93;;
23270;SDS011;11804;51.118;17.058;2023-03-01T09:11:14;30.73;;;21.50;;
23270;SDS011;11804;51.118;17.058;2023-03-01T09:13:47;26.70;;;19.07;;
23270;SDS011;11804;51.118;17.058;2023-03-01T09:16:16;37.07;;;20.73;;
23270;SDS011;11804;51.118;17.058;2023-03-01T09:18:48;30.17;;;20.17;;
23270;SDS011;11804;51.118;17.058;2023-03-01T09:21:20;30.97;;;20.23;;
23270;SDS011;11804;51.118;17.058;2023-03-01T09:23:49;31.07;;;21.03;;
23270;SDS011;11804;51.118;17.058;2023-03-01T09:26:18;31.63;;;21.73;;
23270;SDS011;11804;51.118;17.058;2023-03-01T09:28:50;29.12;;;22.10;;
23270;SDS011;11804;51.118;17.058;2023-03-01T09:31:20;26.37;;;20.90;;
23270;SDS011;11804;51.118;17.058;2023-03-01T09:33:50;31.68;;;24.07;;
23270;SDS011;11804;51.118;17.058;2023-03-01T09:36:21;37.58;;;27.05;;
23270;SDS011;11804;51.118;17.058;2023-03-01T09:38:51;48.08;;;34.13;;
23270;SDS011;11804;51.118;17.058;2023-03-01T09:44:00;36.67;;;26.17;;
23270;SDS011;11804;51.118;17.058;2023-03-01T09:46:31;30.82;;;24.23;;
23270;SDS011;11804;51.118;17.058;2023-03-01T09:49:02;33.90;;;22.95;;
23270;SDS011;11804;51.118;17.058;2023-03-01T09:51:32;35.68;;;24.20;;
23270;SDS011;11804;51.118;17.058;2023-03-01T09:54:02;31.37;;;20.92;;
23270;SDS011;11804;51.118;17.058;2023-03-01T09:56:36;34.23;;;22.90;;
23270;SDS011;11804;51.118;17.058;2023-03-01T10:02:18;31.65;;;21.30;;
23270;SDS011;11804;51.118;17.058;2023-03-01T10:04:45;33.53;;;20.82;;
23270;SDS011;11804;51.118;17.058;2023-03-01T10:10:00;31.73;;;19.77;;
23270;SDS011;11804;51.118;17.058;2023-03-01T10:12:37;33.63;;;22.22;;
23270;SDS011;11804;51.118;17.058;2023-03-01T10:15:53;31.37;;;22.10;;
23270;SDS011;11804;51.118;17.058;2023-03-01T10:22:47;29.45;;;21.55;;
23270;SDS011;11804;51.118;17.058;2023-03-01T10:25:25;29.77;;;20.83;;
23270;SDS011;11804;51.118;17.058;2023-03-01T10:28:16;30.13;;;20.27;;
23270;SDS011;11804;51.118;17.058;2023-03-01T10:30:45;31.67;;;21.60;;
23270;SDS011;11804;51.118;17.058;2023-03-01T10:33:26;25.20;;;18.53;;
23270;SDS011;11804;51.118;17.058;2023-03-01T10:35:59;27.52;;;19.35;;
23270;SDS011;11804;51.118;17.058;2023-03-01T10:38:26;31.57;;;19.98;;
23270;SDS011;11804;51.118;17.058;2023-03-01T10:40:58;33.70;;;21.40;;
23270;SDS011;11804;51.118;17.058;2023-03-01T10:43:31;31.07;;;20.63;;
23270;SDS011;11804;51.118;17.058;2023-03-01T10:45:58;25.70;;;19.40;;
23270;SDS011;11804;51.118;17.058;2023-03-01T10:48:26;31.73;;;21.23;;
23270;SDS011;11804;51.118;17.058;2023-03-01T10:53:35;26.73;;;19.40;;
23270;SDS011;11804;51.118;17.058;2023-03-01T10:56:08;27.77;;;19.67;;
23270;SDS011;11804;51.118;17.058;2023-03-01T10:58:58;28.47;;;19.73;;
23270;SDS011;11804;51.118;17.058;2023-03-01T11:01:33;38.13;;;20.77;;
23270;SDS011;11804;51.118;17.058;2023-03-01T11:06:39;25.35;;;16.90;;
23270;SDS011;11804;51.118;17.058;2023-03-01T11:09:15;24.50;;;16.67;;
23270;SDS011;11804;51.118;17.058;2023-03-01T11:11:44;28.60;;;18.50;;
23270;SDS011;11804;51.118;17.058;2023-03-01T11:14:16;29.60;;;18.97;;
23270;SDS011;11804;51.118;17.058;2023-03-01T11:16:59;34.27;;;21.00;;
23270;SDS011;11804;51.118;17.058;2023-03-01T11:19:32;29.07;;;19.90;;
23270;SDS011;11804;51.118;17.058;2023-03-01T11:22:13;31.80;;;20.60;;
23270;SDS011;11804;51.118;17.058;2023-03-01T11:24:46;29.73;;;20.40;;
23270;SDS011;11804;51.118;17.058;2023-03-01T11:27:26;32.30;;;19.77;;
23270;SDS011;11804;51.118;17.058;2023-03-01T11:30:06;33.80;;;19.80;;
23270;SDS011;11804;51.118;17.058;2023-03-01T11:32:42;35.90;;;20.27;;
23270;SDS011;11804;51.118;17.058;2023-03-01T11:35:16;33.20;;;19.27;;
23270;SDS011;11804;51.118;17.058;2023-03-01T11:40:40;30.73;;;18.10;;
23270;SDS011;11804;51.118;17.058;2023-03-01T11:43:19;29.07;;;18.50;;
23270;SDS011;11804;51.118;17.058;2023-03-01T11:46:02;33.57;;;17.80;;
23270;SDS011;11804;51.118;17.058;2023-03-01T11:51:05;29.27;;;16.87;;
23270;SDS011;11804;51.118;17.058;2023-03-01T11:53:56;27.67;;;17.47;;
23270;SDS011;11804;51.118;17.058;2023-03-01T12:07:35;23.60;;;14.37;;
23270;SDS011;11804;51.118;17.058;2023-03-01T12:10:15;32.27;;;16.80;;
23270;SDS011;11804;51.118;17.058;2023-03-01T12:15:47;33.93;;;18.10;;
23270;SDS011;11804;51.118;17.058;2023-03-01T12:21:06;35.13;;;19.40;;
23270;SDS011;11804;51.118;17.058;2023-03-01T12:34:35;28.37;;;16.00;;
23270;SDS011;11804;51.118;17.058;2023-03-01T12:43:02;29.33;;;15.57;;
23270;SDS011;11804;51.118;17.058;2023-03-01T12:45:48;26.70;;;14.90;;
23270;SDS011;11804;51.118;17.058;2023-03-01T12:48:23;33.80;;;14.93;;
23270;SDS011;11804;51.118;17.058;2023-03-01T12:51:06;21.03;;;13.63;;
23270;SDS011;11804;51.118;17.058;2023-03-01T12:53:41;23.30;;;11.23;;
23270;SDS011;11804;51.118;17.058;2023-03-01T12:56:22;23.40;;;12.33;;
23270;SDS011;11804;51.118;17.058;2023-03-01T13:17:53;16.37;;;8.87;;
23270;SDS011;11804;51.118;17.058;2023-03-01T13:28:41;20.97;;;10.87;;
23270;SDS011;11804;51.118;17.058;2023-03-01T13:31:11;20.77;;;10.37;;
23270;SDS011;11804;51.118;17.058;2023-03-01T13:33:51;19.70;;;11.40;;
23270;SDS011;11804;51.118;17.058;2023-03-01T13:39:04;28.47;;;14.53;;
23270;SDS011;11804;51.118;17.058;2023-03-01T13:44:30;18.10;;;11.20;;
23270;SDS011;11804;51.118;17.058;2023-03-01T13:49:46;19.80;;;11.70;;
23270;SDS011;11804;51.118;17.058;2023-03-01T13:52:26;25.73;;;15.07;;
23270;SDS011;11804;51.118;17.058;2023-03-01T13:55:05;21.20;;;12.47;;
23270;SDS011;11804;51.118;17.058;2023-03-01T13:57:57;20.60;;;12.00;;
23270;SDS011;11804;51.118;17.058;2023-03-01T14:00:32;22.30;;;11.40;;
23270;SDS011;11804;51.118;17.058;2023-03-01T14:03:25;19.07;;;11.87;;
23270;SDS011;11804;51.118;17.058;2023-03-01T14:05:40;18.77;;;11.20;;
23270;SDS011;11804;51.118;17.058;2023-03-01T14:08:20;20.73;;;11.27;;
23270;SDS011;11804;51.118;17.058;2023-03-01T14:13:31;26.03;;;12.87;;
23270;SDS011;11804;51.118;17.058;2023-03-01T14:16:24;24.97;;;12.73;;
23270;SDS011;11804;51.118;17.058;2023-03-01T14:19:14;20.87;;;12.47;;
23270;SDS011;11804;51.118;17.058;2023-03-01T14:21:45;20.07;;;12.87;;
23270;SDS011;11804;51.118;17.058;2023-03-01T14:24:17;20.50;;;13.20;;
23270;SDS011;11804;51.118;17.058;2023-03-01T14:26:47;24.20;;;14.70;;
23270;SDS011;11804;51.118;17.058;2023-03-01T14:29:35;23.80;;;14.07;;
23270;SDS011;11804;51.118;17.058;2023-03-01T14:32:12;24.83;;;13.70;;
23270;SDS011;11804;51.118;17.058;2023-03-01T14:34:48;21.13;;;12.43;;
23270;SDS011;11804;51.118;17.058;2023-03-01T14:37:21;27.97;;;13.63;;
23270;SDS011;11804;51.118;17.058;2023-03-01T14:39:51;21.90;;;13.00;;
23270;SDS011;11804;51.118;17.058;2023-03-01T14:42:21;19.77;;;12.57;;
23270;SDS011;11804;51.118;17.058;2023-03-01T14:44:51;18.93;;;12.50;;
23270;SDS011;11804;51.118;17.058;2023-03-01T14:47:26;19.93;;;12.33;;
23270;SDS011;11804;51.118;17.058;2023-03-01T14:52:32;20.50;;;12.50;;
23270;SDS011;11804;51.118;17.058;2023-03-01T14:55:02;21.13;;;12.73;;
23270;SDS011;11804;51.118;17.058;2023-03-01T14:57:32;20.47;;;11.80;;
23270;SDS011;11804;51.118;17.058;2023-03-01T15:00:00;21.13;;;11.00;;
23270;SDS011;11804;51.118;17.058;2023-03-01T15:02:31;21.90;;;12.40;;
23270;SDS011;11804;51.118;17.058;2023-03-01T15:05:04;23.33;;;12.50;;
23270;SDS011;11804;51.118;17.058;2023-03-01T15:07:31;22.30;;;12.03;;
23270;SDS011;11804;51.118;17.058;2023-03-01T15:10:03;24.60;;;12.23;;
23270;SDS011;11804;51.118;17.058;2023-03-01T15:12:36;35.97;;;16.03;;
23270;SDS011;11804;51.118;17.058;2023-03-01T15:17:55;31.20;;;15.17;;
23270;SDS011;11804;51.118;17.058;2023-03-01T15:20:26;23.93;;;13.17;;
23270;SDS011;11804;51.118;17.058;2023-03-01T15:22:57;27.80;;;13.67;;
23270;SDS011;11804;51.118;17.058;2023-03-01T15:25:27;21.33;;;12.87;;
23270;SDS011;11804;51.118;17.058;2023-03-01T15:27:57;22.33;;;13.97;;
23270;SDS011;11804;51.118;17.058;2023-03-01T15:30:31;26.83;;;13.53;;
23270;SDS011;11804;51.118;17.058;2023-03-01T15:33:16;25.53;;;13.13;;
23270;SDS011;11804;51.118;17.058;2023-03-01T15:35:51;22.87;;;13.00;;
23270;SDS011;11804;51.118;17.058;2023-03-01T15:38:25;22.33;;;12.83;;
23270;SDS011;11804;51.118;17.058;2023-03-01T15:41:02;25.13;;;13.33;;
23270;SDS011;11804;51.118;17.058;2023-03-01T15:43:46;23.60;;;12.83;;
23270;SDS011;11804;51.118;17.058;2023-03-01T15:46:19;25.17;;;14.10;;
23270;SDS011;11804;51.118;17.058;2023-03-01T15:49:02;27.00;;;13.57;;
23270;SDS011;11804;51.118;17.058;2023-03-01T15:54:04;25.40;;;13.57;;
23270;SDS011;11804;51.118;17.058;2023-03-01T15:56:34;26.00;;;13.90;;
23270;SDS011;11804;51.118;17.058;2023-03-01T15:59:02;29.37;;;13.20;;
23270;SDS011;11804;51.118;17.058;2023-03-01T16:01:31;33.63;;;14.67;;
23270;SDS011;11804;51.118;17.058;2023-03-01T16:04:00;31.57;;;18.27;;
23270;SDS011;11804;51.118;17.058;2023-03-01T16:06:28;54.63;;;16.13;;
23270;SDS011;11804;51.118;17.058;2023-03-01T16:08:56;31.90;;;16.27;;
23270;SDS011;11804;51.118;17.058;2023-03-01T16:11:24;24.83;;;15.43;;
23270;SDS011;11804;51.118;17.058;2023-03-01T16:13:52;31.00;;;15.37;;
23270;SDS011;11804;51.118;17.058;2023-03-01T16:16:19;29.93;;;14.93;;
23270;SDS011;11804;51.118;17.058;2023-03-01T16:18:48;31.57;;;17.63;;
23270;SDS011;11804;51.118;17.058;2023-03-01T16:21:18;31.90;;;17.87;;
23270;SDS011;11804;51.118;17.058;2023-03-01T16:23:47;41.10;;;22.53;;
23270;SDS011;11804;51.118;17.058;2023-03-01T16:26:14;47.13;;;27.67;;
23270;SDS011;11804;51.118;17.058;2023-03-01T16:28:42;47.83;;;29.60;;
23270;SDS011;11804;51.118;17.058;2023-03-01T16:31:11;38.73;;;22.07;;
23270;SDS011;11804;51.118;17.058;2023-03-01T16:33:40;33.90;;;19.13;;